Time;durP1;ratioP1;P1;durP2;ratioP2;P2;SDS_P1;SDS_P2;PMS_P1;PMS_P2;Temp;Humidity;BMP_temperature;BMP_pressure;BME280_temperature;BME280_humidity;BME280_pressure;Samples;Min_cycle;Max_cycle;Signal;HPM_P1;HPM_P2
2021/12/05 00:23:19;;;;;;;30.88;18.45;;;4.90;77.90;;;;;;5054676;28;20029;-66
2021/12/05 00:25:50;;;;;;;26.38;18.25;;;4.90;77.60;;;;;;5056075;28;20028;-76
2021/12/05 00:46:44;;;;;;;26.40;19.50;;;4.60;79.10;;;;;;5049982;28;20246;-68
2021/12/05 00:57:35;;;;;;;43.30;24.42;;;4.60;79.40;;;;;;5074152;28;20020;-70
2021/12/05 01:02:45;;;;;;;25.85;18.15;;;4.60;79.30;;;;;;5074260;28;20074;-67
2021/12/05 01:05:54;;;;;;;25.90;19.13;;;4.60;79.10;;;;;;5072480;28;20068;-67
2021/12/05 01:08:27;;;;;;;25.77;18.13;;;4.70;79.20;;;;;;5072767;28;20259;-67
2021/12/05 01:16:25;;;;;;;27.13;19.45;;;4.70;79.50;;;;;;5073562;28;20060;-66
2021/12/05 01:18:51;;;;;;;29.63;19.45;;;4.60;79.20;;;;;;5073392;28;20031;-65
2021/12/05 01:21:20;;;;;;;27.90;18.85;;;4.60;79.50;;;;;;5073114;28;20041;-65
2021/12/05 01:24:04;;;;;;;27.00;19.23;;;4.60;79.80;;;;;;5072363;28;20024;-65
2021/12/05 02:30:27;;;;;;;21.10;16.73;;;4.80;80.70;;;;;;5050905;28;20036;-64
2021/12/05 02:41:15;;;;;;;24.83;18.63;;;4.70;81.00;;;;;;5050912;28;20032;-69
2021/12/05 02:43:45;;;;;;;24.20;18.75;;;4.80;80.90;;;;;;5036589;28;20284;-69
2021/12/05 02:46:14;;;;;;;27.23;19.65;;;4.90;80.70;;;;;;5050763;28;20092;-69
2021/12/05 02:48:40;;;;;;;31.20;21.00;;;4.90;80.40;;;;;;5050985;28;20025;-65
2021/12/05 02:51:22;;;;;;;30.50;21.42;;;4.80;80.50;;;;;;5050971;28;20508;-65
2021/12/05 02:54:03;;;;;;;28.88;20.75;;;4.70;80.70;;;;;;5051433;28;20029;-66
2021/12/05 02:56:31;;;;;;;32.80;21.38;;;4.70;80.70;;;;;;5050744;28;20037;-72
2021/12/05 02:59:00;;;;;;;32.10;20.77;;;4.70;81.20;;;;;;5050875;28;20029;-61
2021/12/05 03:01:35;;;;;;;30.83;22.42;;;4.70;81.20;;;;;;5033515;28;20123;-68
2021/12/05 03:04:01;;;;;;;29.95;21.33;;;4.70;81.20;;;;;;5051312;28;20075;-67
2021/12/05 03:06:33;;;;;;;32.42;21.55;;;4.80;81.20;;;;;;5051035;28;20056;-70
2021/12/05 03:09:04;;;;;;;33.60;22.85;;;4.80;81.00;;;;;;5033681;28;20079;-65
2021/12/05 03:11:30;;;;;;;29.38;21.83;;;4.90;80.90;;;;;;5033490;28;20021;-65
2021/12/05 03:13:56;;;;;;;31.02;22.42;;;4.90;80.90;;;;;;5051417;28;20036;-67
2021/12/05 03:16:24;;;;;;;30.85;22.05;;;4.80;80.80;;;;;;5033320;28;20458;-67
2021/12/05 03:18:50;;;;;;;32.72;22.75;;;4.90;80.90;;;;;;5051525;28;20025;-65
2021/12/05 03:21:17;;;;;;;32.25;22.38;;;4.90;81.00;;;;;;5033417;28;20021;-62
2021/12/05 03:23:45;;;;;;;29.60;22.83;;;4.90;80.70;;;;;;5051815;28;20450;-65
2021/12/05 03:26:15;;;;;;;32.65;22.80;;;4.90;80.60;;;;;;5051330;28;20049;-67
2021/12/05 03:28:44;;;;;;;29.63;21.88;;;4.90;80.70;;;;;;5051735;28;20025;-69
2021/12/05 03:31:10;;;;;;;33.58;23.92;;;4.90;80.80;;;;;;5051544;28;20108;-66
2021/12/05 03:33:37;;;;;;;30.13;22.65;;;4.90;80.90;;;;;;5033132;28;20116;-69
2021/12/05 03:36:06;;;;;;;29.55;21.40;;;4.90;80.90;;;;;;5034848;28;20029;-65
2021/12/05 03:38:33;;;;;;;30.02;21.05;;;4.90;80.40;;;;;;5054583;28;20028;-66
2021/12/05 03:40:58;;;;;;;28.55;21.70;;;4.90;80.80;;;;;;5055331;28;20100;-67
2021/12/05 03:43:24;;;;;;;30.38;22.00;;;4.90;80.90;;;;;;5036887;28;20059;-68
2021/12/05 03:45:54;;;;;;;33.40;23.75;;;4.90;80.90;;;;;;5055225;28;20104;-64
2021/12/05 03:48:22;;;;;;;30.70;22.92;;;4.90;80.70;;;;;;5054551;28;20044;-61
2021/12/05 03:50:49;;;;;;;30.92;22.38;;;4.90;80.70;;;;;;5054901;28;20082;-65
2021/12/05 03:53:17;;;;;;;30.30;22.27;;;4.90;80.90;;;;;;5054780;28;20470;-67
2021/12/05 03:55:44;;;;;;;30.35;22.65;;;4.90;80.80;;;;;;5054685;28;20029;-71
2021/12/05 03:58:11;;;;;;;29.25;21.45;;;4.90;81.00;;;;;;5054790;28;20025;-65
2021/12/05 04:00:41;;;;;;;35.40;22.75;;;4.90;81.00;;;;;;5036653;28;20419;-72
2021/12/05 04:03:10;;;;;;;28.77;21.70;;;4.80;80.80;;;;;;5055187;28;20075;-68
2021/12/05 04:05:37;;;;;;;29.48;22.02;;;4.90;81.10;;;;;;5054500;28;20029;-69
2021/12/05 04:08:08;;;;;;;32.20;22.02;;;4.90;80.90;;;;;;5054531;28;20025;-66
2021/12/05 04:10:40;;;;;;;32.45;22.42;;;4.90;80.80;;;;;;5054449;28;20082;-67
2021/12/05 04:13:06;;;;;;;31.20;22.55;;;4.90;80.90;;;;;;5054644;28;20136;-67
2021/12/05 04:15:32;;;;;;;31.60;22.10;;;5.00;80.80;;;;;;5053885;28;20061;-69
2021/12/05 04:17:58;;;;;;;35.03;23.42;;;5.00;80.60;;;;;;5054537;28;20489;-71
2021/12/05 04:20:25;;;;;;;28.75;21.00;;;5.00;80.70;;;;;;5053822;28;20078;-65
2021/12/05 04:22:52;;;;;;;27.85;21.17;;;5.00;80.60;;;;;;5054570;28;20067;-66
2021/12/05 04:25:19;;;;;;;28.50;21.60;;;5.00;80.80;;;;;;5035981;28;20036;-68
2021/12/05 04:27:48;;;;;;;29.38;21.75;;;5.10;80.50;;;;;;5054593;28;20052;-65
2021/12/05 04:30:16;;;;;;;30.98;22.30;;;5.10;80.50;;;;;;5054525;28;20565;-68
2021/12/05 04:32:42;;;;;;;27.55;20.15;;;5.10;80.50;;;;;;5054488;28;20033;-73
2021/12/05 04:35:09;;;;;;;29.63;21.48;;;5.20;80.50;;;;;;5054023;28;20037;-66
2021/12/05 04:37:35;;;;;;;26.17;20.20;;;5.10;80.20;;;;;;5035995;28;20104;-66
2021/12/05 04:40:03;;;;;;;29.25;21.40;;;5.10;80.30;;;;;;5053956;28;20021;-67
2021/12/05 04:42:29;;;;;;;26.60;21.13;;;5.10;80.40;;;;;;5035292;28;20082;-65
2021/12/05 04:44:55;;;;;;;27.98;20.58;;;5.10;80.40;;;;;;5054087;28;20032;-68
2021/12/05 04:47:21;;;;;;;29.77;20.98;;;5.10;80.30;;;;;;5052446;28;20029;-67
2021/12/05 04:49:47;;;;;;;28.38;20.08;;;5.10;80.30;;;;;;5054360;28;20020;-65
2021/12/05 04:52:14;;;;;;;28.63;21.42;;;5.20;80.40;;;;;;5036315;28;20393;-63
2021/12/05 04:54:39;;;;;;;29.17;20.27;;;5.20;80.10;;;;;;5052984;28;20073;-66
2021/12/05 04:57:06;;;;;;;29.35;21.70;;;5.20;80.10;;;;;;5036040;28;20057;-68
2021/12/05 04:59:36;;;;;;;31.02;22.20;;;5.20;80.20;;;;;;5053216;28;20029;-67
2021/12/05 05:02:07;;;;;;;31.02;22.88;;;5.30;80.10;;;;;;5053857;28;20641;-64
2021/12/05 05:04:40;;;;;;;29.52;20.90;;;5.40;80.00;;;;;;5035364;28;20458;-68
2021/12/05 05:07:15;;;;;;;30.20;21.95;;;5.40;79.50;;;;;;5035868;28;20033;-66
2021/12/05 05:09:41;;;;;;;32.53;22.52;;;5.40;79.60;;;;;;5053789;28;20082;-64
2021/12/05 05:12:07;;;;;;;30.63;22.75;;;5.40;79.70;;;;;;5053847;28;20029;-66
2021/12/05 05:14:33;;;;;;;28.92;21.02;;;5.50;79.70;;;;;;5052583;28;20033;-66
2021/12/05 05:16:59;;;;;;;28.02;20.73;;;5.50;79.60;;;;;;5053525;28;20435;-66
2021/12/05 05:19:34;;;;;;;31.42;22.58;;;5.60;79.30;;;;;;5052588;28;20100;-66
2021/12/05 05:22:09;;;;;;;31.10;21.60;;;5.70;79.00;;;;;;5035380;28;20029;-68
2021/12/05 05:25:08;;;;;;;29.55;20.98;;;5.70;79.00;;;;;;5052216;28;20036;-66
2021/12/05 05:43:52;;;;;;;28.45;21.38;;;5.40;80.80;;;;;;5052514;28;20137;-64
2021/12/05 05:46:23;;;;;;;27.60;20.60;;;5.50;80.70;;;;;;5052200;28;20032;-65
2021/12/05 05:48:56;;;;;;;28.55;21.00;;;5.50;80.80;;;;;;5034729;28;20036;-66
2021/12/05 05:51:22;;;;;;;28.98;20.70;;;5.50;80.80;;;;;;5034154;28;20029;-67
2021/12/05 05:53:48;;;;;;;28.15;20.52;;;5.60;80.90;;;;;;5034443;28;20068;-61
2021/12/05 05:56:22;;;;;;;29.13;20.08;;;5.60;81.00;;;;;;5052724;28;20121;-62
2021/12/05 05:58:54;;;;;;;31.23;21.98;;;5.60;81.60;;;;;;5052575;28;20057;-62
2021/12/05 06:01:39;;;;;;;28.23;21.85;;;5.60;81.10;;;;;;5033977;28;20029;-64
2021/12/05 06:04:07;;;;;;;28.65;20.88;;;5.60;81.40;;;;;;5052493;28;20085;-69
2021/12/05 06:06:33;;;;;;;28.95;21.10;;;5.70;81.50;;;;;;5034048;28;20032;-65
2021/12/05 06:09:00;;;;;;;28.38;20.90;;;5.70;81.60;;;;;;5052168;28;20025;-62
2021/12/05 06:11:26;;;;;;;26.75;19.05;;;5.80;81.50;;;;;;5034135;28;20079;-60
2021/12/05 06:13:53;;;;;;;27.80;19.92;;;5.90;81.30;;;;;;5051978;28;20171;-67
2021/12/05 06:16:20;;;;;;;25.35;19.13;;;5.90;81.20;;;;;;5052026;28;20061;-65
2021/12/05 06:18:47;;;;;;;24.77;19.27;;;6.00;81.20;;;;;;5034282;28;20481;-64
2021/12/05 06:21:14;;;;;;;27.00;20.80;;;6.00;81.00;;;;;;5051583;28;20048;-66
2021/12/05 06:23:41;;;;;;;23.08;17.48;;;6.10;81.00;;;;;;5033583;28;20032;-65
2021/12/05 06:26:11;;;;;;;25.20;17.77;;;6.20;81.60;;;;;;5031807;28;20025;-65
2021/12/05 06:28:41;;;;;;;23.33;17.90;;;6.20;80.60;;;;;;5052987;28;20029;-66
2021/12/05 06:43:05;;;;;;;18.80;14.18;;;6.10;81.40;;;;;;5051975;28;20462;-64
2021/12/05 06:47:38;;;;;;;22.17;15.85;;;6.20;82.30;;;;;;5035759;28;20472;-63
2021/12/05 06:50:04;;;;;;;20.00;15.82;;;6.40;82.10;;;;;;5050633;28;20052;-66
2021/12/05 06:52:30;;;;;;;24.15;17.25;;;6.30;81.80;;;;;;5033371;28;20270;-65
2021/12/05 06:54:56;;;;;;;19.90;16.38;;;6.40;81.70;;;;;;5050878;28;20597;-63
2021/12/05 06:57:21;;;;;;;25.15;17.48;;;6.30;81.70;;;;;;5050675;28;20048;-69
2021/12/05 06:59:49;;;;;;;23.73;18.23;;;6.30;81.70;;;;;;5051144;28;20102;-70
2021/12/05 07:02:18;;;;;;;23.10;18.23;;;6.40;81.50;;;;;;5050265;28;20037;-64
2021/12/05 07:07:24;;;;;;;23.33;17.88;;;6.40;81.20;;;;;;5050541;28;20538;-68
2021/12/05 07:09:51;;;;;;;25.00;18.45;;;6.40;81.00;;;;;;5050953;28;20131;-67
2021/12/05 07:15:11;;;;;;;23.55;17.80;;;6.60;80.60;;;;;;5054823;28;20439;-66
2021/12/05 07:22:44;;;;;;;23.20;16.77;;;6.80;79.80;;;;;;5055274;28;20025;-66
2021/12/05 07:25:25;;;;;;;20.15;15.23;;;6.90;80.00;;;;;;5036670;28;20040;-68
2021/12/05 07:44:03;;;;;;;4.47;3.15;;;7.60;77.90;;;;;;5074461;28;19904;-69
2021/12/05 07:46:29;;;;;;;6.65;2.80;;;7.60;77.80;;;;;;5073330;28;20028;-65
2021/12/05 07:48:58;;;;;;;3.45;2.50;;;7.60;77.70;;;;;;5073967;28;20025;-69
2021/12/05 07:51:27;;;;;;;2.50;1.95;;;7.60;77.10;;;;;;5072532;28;20032;-66
2021/12/05 07:56:50;;;;;;;3.30;2.30;;;7.80;77.20;;;;;;5073638;28;20397;-67
2021/12/05 08:15:47;;;;;;;6.55;3.25;;;7.90;75.40;;;;;;5031923;28;20119;-68
2021/12/05 08:18:15;;;;;;;3.65;2.70;;;7.90;75.10;;;;;;5072333;28;20020;-64
2021/12/05 08:20:43;;;;;;;4.20;2.70;;;7.90;75.30;;;;;;5072534;28;20037;-63
2021/12/05 08:23:12;;;;;;;3.90;3.00;;;7.90;75.10;;;;;;5071892;28;20393;-63
2021/12/05 08:25:43;;;;;;;4.30;2.80;;;7.90;75.30;;;;;;5073593;28;20077;-66
2021/12/05 08:28:26;;;;;;;5.97;3.55;;;7.90;75.20;;;;;;5071680;28;20049;-68
2021/12/05 08:31:07;;;;;;;5.72;2.95;;;7.90;75.30;;;;;;5072073;28;20056;-67
2021/12/05 08:33:51;;;;;;;4.70;2.85;;;7.90;75.20;;;;;;5072630;28;20272;-64
2021/12/05 09:25:43;;;;;;;3.10;2.22;;;8.10;73.20;;;;;;5072561;28;20028;-63
2021/12/05 10:15:37;;;;;;;8.18;3.50;;;8.00;73.10;;;;;;5045838;28;20060;-74
2021/12/05 10:37:25;;;;;;;6.38;3.72;;;7.80;73.80;;;;;;5049443;28;20025;-66
2021/12/05 10:40:18;;;;;;;6.55;3.38;;;7.80;73.40;;;;;;5051498;28;20036;-67
2021/12/05 10:42:47;;;;;;;6.43;3.00;;;7.80;73.40;;;;;;5051078;28;20112;-68
2021/12/05 10:45:27;;;;;;;5.28;3.53;;;7.90;73.10;;;;;;5050776;28;20067;-75
2021/12/05 10:47:56;;;;;;;6.13;3.25;;;8.00;73.00;;;;;;5033392;28;20028;-67
2021/12/05 10:50:47;;;;;;;8.98;2.92;;;8.00;72.60;;;;;;5033204;28;20025;-62
2021/12/05 10:53:49;;;;;;;7.88;3.45;;;8.10;72.50;;;;;;5017438;28;20032;-62
2021/12/05 10:56:34;;;;;;;5.75;3.20;;;8.10;72.30;;;;;;5033090;28;20044;-70
2021/12/05 10:59:12;;;;;;;6.72;3.58;;;8.10;72.40;;;;;;5033366;28;20032;-66
2021/12/05 11:01:50;;;;;;;10.48;3.90;;;8.20;72.20;;;;;;5051620;28;20104;-74
2021/12/05 11:04:24;;;;;;;8.15;3.45;;;8.40;71.90;;;;;;5051141;28;20085;-71
2021/12/05 11:06:52;;;;;;;;;;;8.40;71.60;;;;;;5052340;28;20470;-65
2021/12/05 11:09:24;;;;;;;8.45;3.42;;;8.50;70.90;;;;;;5050440;28;19998;-66
2021/12/05 11:11:57;;;;;;;5.97;3.35;;;8.60;71.20;;;;;;5051631;28;20108;-72
2021/12/05 11:14:28;;;;;;;5.75;3.25;;;8.60;70.90;;;;;;5050820;28;20048;-64
2021/12/05 11:16:56;;;;;;;6.50;3.03;;;8.70;70.40;;;;;;5051644;28;20083;-64
2021/12/05 11:19:29;;;;;;;6.72;3.05;;;8.70;69.90;;;;;;5050629;28;20120;-64
2021/12/05 11:22:10;;;;;;;6.38;2.97;;;8.70;70.10;;;;;;5051380;28;20029;-62
2021/12/05 11:24:40;;;;;;;6.75;3.13;;;8.70;69.80;;;;;;5051371;28;20423;-64
2021/12/05 11:27:14;;;;;;;5.82;3.17;;;8.60;69.50;;;;;;5050557;28;20044;-65
2021/12/05 11:29:42;;;;;;;8.23;3.03;;;8.60;69.70;;;;;;5071254;28;20044;-64
2021/12/05 11:32:11;;;;;;;4.75;2.60;;;8.60;69.90;;;;;;5070900;28;20039;-63
2021/12/05 11:34:37;;;;;;;8.65;3.28;;;8.50;69.70;;;;;;5071115;28;20029;-58
2021/12/05 11:37:03;;;;;;;6.28;2.92;;;8.50;70.10;;;;;;5071845;28;20050;-67
2021/12/05 11:39:29;;;;;;;5.35;3.08;;;8.60;70.20;;;;;;5070979;28;20466;-65
2021/12/05 11:41:56;;;;;;;6.53;3.63;;;8.60;70.20;;;;;;5069926;28;20480;-61
2021/12/05 11:44:24;;;;;;;7.18;3.40;;;8.60;70.30;;;;;;5070658;28;20075;-64
2021/12/05 11:46:50;;;;;;;6.28;3.03;;;8.50;70.20;;;;;;5071108;28;20032;-64
2021/12/05 11:49:24;;;;;;;5.40;3.28;;;8.60;70.20;;;;;;5069403;28;20024;-67
2021/12/05 11:51:57;;;;;;;;;;;8.50;70.20;;;;;;5070590;28;20412;-65
2021/12/05 11:54:26;;;;;;;7.50;2.80;;;8.50;70.40;;;;;;5069062;28;20411;-64
2021/12/05 11:56:57;;;;;;;5.03;2.50;;;8.60;70.40;;;;;;5072174;28;20402;-66
2021/12/05 11:59:49;;;;;;;6.43;3.13;;;8.50;70.30;;;;;;5074573;28;20032;-66
2021/12/05 12:02:22;;;;;;;6.07;3.28;;;8.60;70.20;;;;;;5050066;28;20063;-63
2021/12/05 12:04:59;;;;;;;7.03;2.83;;;8.50;70.00;;;;;;5073837;28;20067;-66
2021/12/05 12:07:34;;;;;;;7.65;3.40;;;8.50;70.10;;;;;;5070612;28;20031;-62
2021/12/05 12:10:11;;;;;;;5.13;3.00;;;8.50;70.10;;;;;;5072109;28;20020;-63
2021/12/05 12:12:45;;;;;;;7.03;2.78;;;8.50;69.80;;;;;;5072009;28;20033;-64
2021/12/05 12:15:14;;;;;;;7.43;3.20;;;8.50;69.90;;;;;;5073191;28;20051;-62
2021/12/05 12:17:41;;;;;;;7.43;3.17;;;8.60;70.10;;;;;;5071267;28;20043;-65
2021/12/05 12:20:11;;;;;;;12.13;3.55;;;8.70;69.90;;;;;;5072412;28;20047;-62
2021/12/05 12:22:39;;;;;;;9.20;3.20;;;8.70;69.60;;;;;;5073654;28;20032;-68
2021/12/05 12:25:11;;;;;;;8.45;3.08;;;8.70;69.00;;;;;;5072676;28;20036;-65
2021/12/05 12:27:37;;;;;;;5.65;3.13;;;8.70;68.70;;;;;;5058673;28;20045;-65
2021/12/05 12:30:05;;;;;;;9.95;3.83;;;8.80;68.80;;;;;;5035341;28;20021;-64
2021/12/05 12:32:36;;;;;;;7.28;2.70;;;8.80;68.70;;;;;;5032758;28;20021;-64
2021/12/05 12:35:15;;;;;;;6.75;2.78;;;8.90;68.60;;;;;;5051551;28;20432;-64
2021/12/05 12:38:13;;;;;;;5.65;2.80;;;8.80;68.60;;;;;;5053499;28;20044;-62
2021/12/05 12:40:49;;;;;;;7.22;2.63;;;8.70;68.70;;;;;;5052987;28;20147;-63
2021/12/05 12:43:43;;;;;;;5.95;2.78;;;8.70;69.00;;;;;;5052840;28;20025;-64
2021/12/05 12:46:40;;;;;;;6.65;3.13;;;8.70;69.10;;;;;;5053763;28;20037;-65
2021/12/05 12:49:15;;;;;;;8.35;3.30;;;8.80;69.20;;;;;;5035712;28;20086;-68
2021/12/05 12:52:18;;;;;;;6.25;2.88;;;8.90;68.90;;;;;;5035842;28;20035;-65
2021/12/05 12:54:57;;;;;;;8.00;3.30;;;8.80;68.40;;;;;;5009325;28;20045;-64
2021/12/05 12:57:34;;;;;;;7.18;3.42;;;8.70;68.60;;;;;;5035892;28;20133;-62
2021/12/05 13:00:11;;;;;;;8.75;3.60;;;8.70;68.80;;;;;;5035903;28;20024;-68
2021/12/05 13:03:02;;;;;;;5.57;3.08;;;8.70;68.60;;;;;;5036092;28;20120;-65
2021/12/05 13:11:22;;;;;;;5.05;2.83;;;8.80;68.30;;;;;;5053787;28;20040;-64
2021/12/05 13:14:05;;;;;;;7.68;3.05;;;8.70;68.30;;;;;;5053306;28;20048;-64
2021/12/05 13:16:35;;;;;;;9.23;3.20;;;8.60;68.00;;;;;;5053188;28;20059;-63
2021/12/05 13:19:30;;;;;;;7.38;3.22;;;8.50;68.50;;;;;;5053571;28;20265;-63
2021/12/05 13:22:07;;;;;;;9.40;3.30;;;8.40;68.10;;;;;;5018512;28;20033;-64
2021/12/05 13:24:42;;;;;;;7.90;3.10;;;8.30;68.70;;;;;;5052729;28;20212;-63
2021/12/05 13:27:23;;;;;;;7.07;2.83;;;8.20;68.80;;;;;;5053310;28;20501;-64
2021/12/05 13:30:09;;;;;;;7.30;3.28;;;8.10;68.90;;;;;;5073549;28;20029;-64
2021/12/05 13:32:35;;;;;;;10.10;3.47;;;8.00;69.10;;;;;;5072687;28;20085;-66
2021/12/05 13:35:10;;;;;;;8.68;4.18;;;8.00;69.30;;;;;;5072720;28;20123;-62
2021/12/05 13:37:47;;;;;;;9.05;3.50;;;8.10;69.30;;;;;;5072694;28;20099;-65
2021/12/05 13:40:32;;;;;;;5.72;2.72;;;8.10;69.30;;;;;;5072561;28;20138;-60
2021/12/05 13:43:05;;;;;;;7.00;2.83;;;8.10;68.80;;;;;;5071645;28;20055;-64
2021/12/05 13:45:42;;;;;;;;;;;8.10;68.90;;;;;;5071271;28;20097;-64
2021/12/05 13:48:15;;;;;;;6.95;2.85;;;8.10;68.90;;;;;;5071570;28;19977;-63
2021/12/05 13:50:42;;;;;;;5.28;3.05;;;8.00;69.20;;;;;;5071491;28;20035;-63
2021/12/05 13:53:08;;;;;;;6.97;2.90;;;8.00;69.20;;;;;;5072008;28;20090;-63
2021/12/05 13:55:50;;;;;;;8.32;3.05;;;8.00;69.60;;;;;;5070380;28;20474;-64
2021/12/05 13:58:25;;;;;;;8.05;3.08;;;8.00;69.40;;;;;;5070741;28;20024;-64
2021/12/05 14:01:03;;;;;;;6.82;3.60;;;8.00;69.30;;;;;;5072668;28;20105;-61
2021/12/05 14:03:47;;;;;;;8.05;3.10;;;8.00;69.60;;;;;;5069367;28;20034;-67
2021/12/05 14:06:33;;;;;;;;;;;7.90;69.70;;;;;;5071234;28;20478;-65
2021/12/05 14:09:19;;;;;;;8.07;4.03;;;7.90;69.90;;;;;;5070989;28;20493;-58
2021/12/05 14:11:50;;;;;;;6.10;3.10;;;7.90;69.80;;;;;;5071217;28;20029;-61
2021/12/05 14:14:20;;;;;;;5.50;2.90;;;7.90;70.00;;;;;;5070139;28;20389;-63
2021/12/05 14:16:48;;;;;;;7.25;3.05;;;7.90;69.90;;;;;;5070923;28;20059;-64
2021/12/05 14:19:17;;;;;;;8.10;3.88;;;7.90;70.20;;;;;;5071304;28;20082;-63
2021/12/05 14:21:48;;;;;;;8.38;3.05;;;7.80;70.40;;;;;;5071044;28;20090;-67
2021/12/05 14:24:17;;;;;;;8.63;3.58;;;7.90;70.40;;;;;;5070202;28;20386;-61
2021/12/05 14:26:43;;;;;;;8.63;3.35;;;8.00;70.40;;;;;;5070120;28;20052;-60
2021/12/05 14:29:15;;;;;;;10.02;4.13;;;8.00;70.40;;;;;;5068472;28;20068;-60
2021/12/05 14:31:47;;;;;;;5.63;3.63;;;8.00;70.40;;;;;;5071110;28;20021;-57
2021/12/05 14:34:13;;;;;;;11.65;5.10;;;8.00;70.30;;;;;;5071421;28;20024;-65
2021/12/05 14:36:46;;;;;;;10.65;5.80;;;8.00;70.10;;;;;;5070481;28;20065;-65
2021/12/05 14:39:20;;;;;;;8.85;4.50;;;8.00;70.40;;;;;;5068853;28;20021;-65
2021/12/05 14:41:49;;;;;;;9.88;5.63;;;8.00;70.40;;;;;;5067227;28;20097;-70
2021/12/05 14:44:17;;;;;;;8.45;5.03;;;8.00;70.50;;;;;;5070532;28;20031;-64
2021/12/05 14:46:51;;;;;;;10.93;5.35;;;8.00;70.50;;;;;;5072064;28;20028;-65
2021/12/05 14:49:17;;;;;;;10.45;5.82;;;8.00;70.60;;;;;;5071288;28;20428;-70
2021/12/05 14:51:45;;;;;;;14.48;6.25;;;8.00;70.80;;;;;;5072175;28;20028;-66
2021/12/05 14:54:18;;;;;;;13.50;5.20;;;7.90;70.70;;;;;;5071976;28;20033;-66
2021/12/05 14:56:44;;;;;;;12.13;5.07;;;7.90;70.80;;;;;;5071879;28;20028;-66
2021/12/05 14:59:14;;;;;;;10.77;5.32;;;7.90;71.00;;;;;;5071021;28;20263;-69
2021/12/05 15:01:46;;;;;;;14.57;6.00;;;8.00;71.20;;;;;;5072262;28;20025;-67
2021/12/05 15:04:12;;;;;;;13.27;6.18;;;7.90;71.20;;;;;;5071474;28;20035;-67
2021/12/05 15:06:41;;;;;;;10.73;6.13;;;7.90;71.50;;;;;;5071294;28;20020;-65
2021/12/05 15:09:24;;;;;;;9.82;5.53;;;7.90;71.80;;;;;;5071008;28;20025;-64
2021/12/05 15:12:08;;;;;;;14.52;6.30;;;7.90;71.60;;;;;;5071045;28;20045;-68
2021/12/05 15:14:36;;;;;;;10.30;6.18;;;7.90;71.80;;;;;;5067211;28;20219;-63
2021/12/05 15:17:09;;;;;;;11.93;6.18;;;7.80;72.30;;;;;;5070657;28;20028;-66
2021/12/05 15:19:39;;;;;;;11.63;6.07;;;7.80;72.00;;;;;;5069103;28;20063;-61
2021/12/05 15:22:06;;;;;;;11.32;6.05;;;7.80;72.10;;;;;;5068776;28;20055;-63
2021/12/05 15:24:32;;;;;;;10.23;5.88;;;7.80;72.20;;;;;;5071147;28;20021;-64
2021/12/05 15:26:59;;;;;;;16.27;6.68;;;7.90;72.10;;;;;;5060965;28;20124;-63
2021/12/05 15:29:28;;;;;;;16.45;7.35;;;7.80;71.90;;;;;;5050278;28;20175;-60
2021/12/05 15:31:55;;;;;;;16.38;8.52;;;7.90;72.10;;;;;;5051313;28;20029;-65
2021/12/05 15:34:29;;;;;;;14.30;7.82;;;7.90;72.10;;;;;;5035001;28;20112;-63
2021/12/05 15:36:58;;;;;;;13.95;8.32;;;7.90;72.20;;;;;;5055035;28;20056;-63
2021/12/05 15:39:27;;;;;;;12.48;7.55;;;7.90;72.50;;;;;;5049617;28;20029;-64
2021/12/05 15:41:57;;;;;;;12.70;6.20;;;7.90;72.50;;;;;;5035632;28;20021;-63
2021/12/05 15:44:50;;;;;;;15.43;6.72;;;8.00;72.50;;;;;;5035631;28;20025;-70
2021/12/05 15:47:17;;;;;;;10.32;6.18;;;8.00;72.50;;;;;;5051043;28;20033;-75
2021/12/05 15:50:00;;;;;;;15.73;6.90;;;8.00;72.30;;;;;;5055274;28;20025;-75
2021/12/05 15:52:33;;;;;;;12.63;7.10;;;8.00;72.30;;;;;;5037320;28;20028;-69
2021/12/05 15:55:00;;;;;;;17.97;9.77;;;8.10;72.40;;;;;;5055224;28;20076;-66
2021/12/05 15:57:36;;;;;;;11.70;6.03;;;8.10;72.40;;;;;;5054470;28;20072;-71
2021/12/05 16:00:27;;;;;;;9.20;5.60;;;8.20;72.10;;;;;;5034944;28;20024;-69
2021/12/05 16:03:09;;;;;;;12.63;5.95;;;8.10;71.90;;;;;;5044987;28;20446;-68
2021/12/05 16:05:38;;;;;;;10.30;6.50;;;8.10;72.10;;;;;;5052040;28;20212;-68
2021/12/05 16:08:07;;;;;;;12.50;6.60;;;8.10;72.10;;;;;;5054262;28;20433;-66
2021/12/05 16:10:38;;;;;;;12.15;6.70;;;8.10;72.40;;;;;;5035300;28;20381;-63
2021/12/05 16:13:21;;;;;;;9.00;5.85;;;7.90;72.80;;;;;;5035429;28;20035;-65
2021/12/05 16:15:51;;;;;;;10.20;6.72;;;7.90;72.90;;;;;;5031785;28;20037;-70
2021/12/05 16:18:18;;;;;;;11.25;6.57;;;7.90;73.10;;;;;;5035078;28;20067;-69
2021/12/05 16:20:48;;;;;;;11.13;6.43;;;7.90;73.20;;;;;;5033918;28;20601;-70
2021/12/05 16:23:44;;;;;;;12.15;6.53;;;7.90;73.30;;;;;;5035068;28;20094;-62
2021/12/05 16:26:19;;;;;;;11.27;6.32;;;7.90;73.10;;;;;;5035382;28;20042;-67
2021/12/05 16:28:53;;;;;;;9.30;5.28;;;7.80;74.10;;;;;;5051375;28;20059;-66
2021/12/05 16:31:37;;;;;;;10.07;6.28;;;7.80;74.10;;;;;;5033213;28;20025;-62
2021/12/05 16:34:11;;;;;;;9.80;6.10;;;7.70;74.30;;;;;;5051804;28;20151;-68
2021/12/05 16:36:42;;;;;;;;;;;7.60;74.40;;;;;;5052306;28;20033;-64
2021/12/05 16:39:16;;;;;;;9.00;6.07;;;7.70;74.60;;;;;;5035343;28;20002;-63
2021/12/05 16:41:49;;;;;;;;;;;7.70;74.40;;;;;;5051862;28;20122;-63
2021/12/05 16:44:37;;;;;;;9.73;6.03;;;7.70;74.30;;;;;;5030648;28;20268;-64
2021/12/05 16:47:16;;;;;;;8.80;6.30;;;7.70;74.00;;;;;;5030547;28;20924;-63
2021/12/05 16:49:45;;;;;;;8.18;5.95;;;7.70;74.00;;;;;;5034600;28;20029;-68
2021/12/05 16:52:16;;;;;;;9.68;6.05;;;7.70;74.00;;;;;;5051687;28;20029;-63
2021/12/05 16:54:54;;;;;;;14.02;7.85;;;7.80;74.00;;;;;;5050820;28;20052;-63
2021/12/05 16:57:30;;;;;;;9.45;6.35;;;7.80;73.90;;;;;;5032743;28;20029;-64
2021/12/05 17:00:18;;;;;;;12.05;7.22;;;7.90;73.70;;;;;;5033735;28;20048;-65
2021/12/05 17:02:53;;;;;;;9.50;6.40;;;8.00;73.80;;;;;;5038766;28;20040;-66
2021/12/05 17:05:22;;;;;;;10.25;6.43;;;8.00;73.50;;;;;;5052612;28;20037;-63
2021/12/05 17:08:11;;;;;;;9.57;6.20;;;8.00;73.50;;;;;;5033111;28;20466;-66
2021/12/05 17:10:43;;;;;;;8.25;5.55;;;8.00;73.30;;;;;;5032449;28;20385;-63
2021/12/05 17:13:34;;;;;;;12.80;6.65;;;8.00;73.20;;;;;;5050973;28;20057;-66
2021/12/05 17:16:09;;;;;;;10.48;6.47;;;8.00;73.30;;;;;;5050762;28;20166;-63
2021/12/05 17:18:58;;;;;;;11.48;6.60;;;8.00;73.20;;;;;;5050622;28;20064;-64
2021/12/05 17:21:30;;;;;;;12.43;6.78;;;8.00;73.30;;;;;;5051967;28;20025;-65
2021/12/05 17:24:16;;;;;;;8.98;6.57;;;8.00;73.30;;;;;;5051327;28;20021;-64
2021/12/05 17:26:58;;;;;;;12.48;7.18;;;8.00;73.40;;;;;;5052026;28;20041;-64
2021/12/05 17:29:34;;;;;;;10.60;8.15;;;8.00;73.60;;;;;;5050417;28;20424;-66
2021/12/05 17:32:12;;;;;;;10.68;7.60;;;8.00;73.70;;;;;;5050329;28;20051;-70
2021/12/05 17:34:43;;;;;;;12.25;7.50;;;8.00;73.80;;;;;;5049677;28;20525;-63
2021/12/05 17:37:16;;;;;;;11.70;8.32;;;8.00;73.80;;;;;;5034678;28;20116;-64
2021/12/05 17:39:44;;;;;;;12.05;8.18;;;7.90;73.80;;;;;;5033871;28;20025;-65
2021/12/05 17:42:22;;;;;;;11.55;8.30;;;7.90;74.00;;;;;;5033832;28;20029;-63
2021/12/05 17:44:53;;;;;;;13.57;8.73;;;7.80;74.60;;;;;;5052254;28;20044;-73
2021/12/05 17:47:19;;;;;;;13.35;8.88;;;7.80;74.30;;;;;;5033270;28;20688;-65
2021/12/05 17:49:47;;;;;;;11.80;8.52;;;7.70;74.70;;;;;;5052668;28;20029;-68
2021/12/05 17:52:16;;;;;;;12.63;8.82;;;7.70;74.80;;;;;;5034001;28;20032;-67
2021/12/05 17:54:58;;;;;;;13.68;9.50;;;7.80;75.00;;;;;;5032771;28;20035;-63
2021/12/05 17:57:38;;;;;;;11.70;9.10;;;7.80;75.00;;;;;;5050988;28;20033;-69
2021/12/05 18:00:39;;;;;;;11.20;8.50;;;7.70;74.80;;;;;;5033081;28;20036;-61
2021/12/05 18:03:09;;;;;;;14.60;9.35;;;7.60;75.10;;;;;;5035242;28;20057;-62
2021/12/05 18:05:42;;;;;;;12.50;9.40;;;7.60;75.10;;;;;;5033730;28;20059;-67
2021/12/05 18:08:13;;;;;;;12.68;8.30;;;7.70;75.20;;;;;;5051699;28;20040;-76
2021/12/05 18:10:42;;;;;;;11.88;7.35;;;7.80;75.00;;;;;;5032319;28;20270;-61
2021/12/05 18:13:11;;;;;;;12.60;7.40;;;7.80;74.80;;;;;;5032665;28;20029;-70
2021/12/05 18:15:45;;;;;;;9.32;7.43;;;7.80;74.10;;;;;;5032527;28;20060;-68
2021/12/05 18:18:13;;;;;;;11.32;7.90;;;7.80;74.20;;;;;;5033680;28;20030;-62
2021/12/05 18:20:40;;;;;;;11.10;8.27;;;7.70;74.60;;;;;;5051232;28;20033;-63
2021/12/05 18:23:08;;;;;;;10.55;7.28;;;7.70;74.60;;;;;;5051692;28;20039;-63
2021/12/05 18:25:36;;;;;;;10.52;7.05;;;7.80;74.60;;;;;;5051960;28;20035;-64
2021/12/05 18:28:03;;;;;;;11.07;6.78;;;7.70;74.40;;;;;;5052851;28;20045;-74
2021/12/05 18:30:30;;;;;;;8.98;6.68;;;7.70;74.20;;;;;;5051636;28;20163;-64
2021/12/05 18:32:58;;;;;;;8.55;6.95;;;7.70;74.20;;;;;;5052160;28;20029;-69
2021/12/05 18:35:29;;;;;;;11.27;6.90;;;7.70;74.00;;;;;;5033668;28;20194;-70
2021/12/05 18:37:56;;;;;;;11.38;7.65;;;7.70;73.90;;;;;;5034875;28;20111;-70
2021/12/05 18:40:23;;;;;;;14.18;8.15;;;7.60;74.20;;;;;;5051466;28;20033;-61
2021/12/05 18:42:49;;;;;;;13.23;7.82;;;7.60;74.60;;;;;;5052223;28;20024;-64